Time;durP1;ratioP1;P1;durP2;ratioP2;P2;SDS_P1;SDS_P2;PMS_P1;PMS_P2;Temp;Humidity;BMP_temperature;BMP_pressure;BME280_temperature;BME280_humidity;BME280_pressure;Samples;Min_cycle;Max_cycle;Signal;HPM_P1;HPM_P2
2022/12/31 00:02:01;;;;;;;14.25;3.72;;;12.00;99.90;;;;;;5042496;28;20137;-75
2022/12/31 00:04:27;;;;;;;12.52;3.58;;;12.00;99.90;;;;;;5059337;28;20496;-75
2022/12/31 00:06:53;;;;;;;12.43;3.72;;;12.00;99.90;;;;;;5059742;28;20044;-75
2022/12/31 00:09:18;;;;;;;15.02;3.90;;;12.00;99.90;;;;;;5059161;28;20048;-75
2022/12/31 00:11:44;;;;;;;9.82;3.58;;;12.00;99.90;;;;;;5056825;28;20041;-75
2022/12/31 00:14:10;;;;;;;15.32;4.20;;;12.00;99.90;;;;;;5059580;28;20055;-75
2022/12/31 00:16:39;;;;;;;13.32;4.22;;;12.00;99.90;;;;;;5060332;28;20542;-75
2022/12/31 00:19:08;;;;;;;16.15;4.95;;;12.00;99.90;;;;;;5057185;28;20044;-75
2022/12/31 00:21:33;;;;;;;21.90;4.80;;;12.00;99.90;;;;;;5070425;28;20377;-75
2022/12/31 00:24:00;;;;;;;17.33;4.88;;;12.00;99.90;;;;;;5044170;28;20062;-75
2022/12/31 00:26:28;;;;;;;15.85;4.40;;;12.00;99.90;;;;;;5058783;28;20541;-75
2022/12/31 00:28:56;;;;;;;18.60;5.13;;;12.00;99.90;;;;;;5056210;28;20048;-75
2022/12/31 00:31:36;;;;;;;22.60;5.55;;;12.10;99.90;;;;;;5045152;28;20040;-75
2022/12/31 00:34:03;;;;;;;20.50;4.55;;;12.10;99.90;;;;;;5070576;28;20453;-75
2022/12/31 00:36:34;;;;;;;16.80;4.90;;;12.10;99.90;;;;;;5058731;28;20165;-75
2022/12/31 00:39:02;;;;;;;22.00;5.35;;;12.10;99.90;;;;;;5054497;28;20036;-75
2022/12/31 00:41:28;;;;;;;17.55;5.57;;;12.10;99.90;;;;;;5043142;28;20067;-75
2022/12/31 00:43:54;;;;;;;17.35;5.82;;;12.10;99.90;;;;;;5045079;28;20052;-75
2022/12/31 00:46:20;;;;;;;20.25;5.40;;;12.10;99.90;;;;;;5043219;28;20076;-75
2022/12/31 00:48:47;;;;;;;20.10;5.97;;;12.00;99.90;;;;;;5044482;28;20071;-75
2022/12/31 00:51:15;;;;;;;15.13;4.80;;;12.00;99.90;;;;;;5061079;28;20414;-75
2022/12/31 00:53:41;;;;;;;17.08;4.95;;;12.00;99.90;;;;;;5063530;28;20044;-75
2022/12/31 00:56:13;;;;;;;18.80;4.82;;;12.00;99.90;;;;;;5048170;28;20040;-75
2022/12/31 00:58:39;;;;;;;16.00;4.72;;;12.10;99.90;;;;;;5061842;28;20488;-75
2022/12/31 01:01:15;;;;;;;17.60;4.70;;;12.10;99.90;;;;;;5046691;28;20397;-75
2022/12/31 01:03:41;;;;;;;19.30;4.95;;;12.00;99.90;;;;;;5061638;28;20504;-75
2022/12/31 01:06:07;;;;;;;17.83;5.03;;;12.00;99.90;;;;;;5061908;28;20044;-75
2022/12/31 01:08:33;;;;;;;24.08;5.40;;;12.00;99.90;;;;;;5062153;28;20041;-75
2022/12/31 01:11:18;;;;;;;18.45;6.28;;;12.00;99.90;;;;;;5044071;28;20487;-75
2022/12/31 01:14:04;;;;;;;;;;;12.00;99.90;;;;;;5044865;28;20044;-75
2022/12/31 01:16:41;;;;;;;16.27;4.47;;;12.10;99.90;;;;;;5030769;28;19920;-75
2022/12/31 01:19:10;;;;;;;19.50;5.78;;;12.00;99.90;;;;;;5079381;28;20037;-75
2022/12/31 01:21:38;;;;;;;17.98;5.32;;;12.00;99.90;;;;;;5062220;28;20036;-75
2022/12/31 01:24:04;;;;;;;13.00;5.03;;;12.00;99.90;;;;;;5060119;28;20068;-75
2022/12/31 01:26:30;;;;;;;19.05;5.55;;;12.00;99.90;;;;;;5062051;28;20144;-75
2022/12/31 01:28:56;;;;;;;21.58;5.25;;;12.00;99.90;;;;;;5048023;28;20052;-75
2022/12/31 01:31:23;;;;;;;17.48;5.20;;;12.00;99.90;;;;;;5065621;28;20044;-75
2022/12/31 01:33:49;;;;;;;18.48;5.57;;;11.90;99.90;;;;;;5065025;28;20527;-74
2022/12/31 01:36:19;;;;;;;14.38;4.95;;;11.90;99.90;;;;;;5063449;28;20149;-75
2022/12/31 01:38:45;;;;;;;16.77;5.13;;;11.90;99.90;;;;;;5048529;28;20142;-74
2022/12/31 01:41:17;;;;;;;13.15;5.70;;;11.90;99.90;;;;;;5050371;28;20131;-75
2022/12/31 01:43:56;;;;;;;13.40;4.82;;;11.90;99.90;;;;;;5063775;28;20086;-75
2022/12/31 01:46:44;;;;;;;14.35;5.40;;;11.90;99.90;;;;;;5063987;28;20048;-75
2022/12/31 01:49:35;;;;;;;13.48;5.05;;;12.00;99.90;;;;;;5065781;28;20036;-75
2022/12/31 01:52:22;;;;;;;17.17;5.43;;;12.00;99.90;;;;;;5065312;28;20088;-75
2022/12/31 01:55:08;;;;;;;15.45;5.40;;;12.00;99.90;;;;;;5067250;28;20043;-75
2022/12/31 01:57:35;;;;;;;10.20;4.65;;;12.00;99.90;;;;;;5063888;28;20040;-75
2022/12/31 02:00:01;;;;;;;12.70;4.68;;;12.00;99.90;;;;;;5045579;28;20751;-75
2022/12/31 02:02:27;;;;;;;15.98;5.10;;;12.00;99.90;;;;;;5065443;28;20048;-75
2022/12/31 02:04:55;;;;;;;12.50;4.50;;;11.90;99.90;;;;;;5046799;28;20460;-75
2022/12/31 02:07:22;;;;;;;13.45;5.03;;;11.90;99.90;;;;;;5064280;28;20176;-75
2022/12/31 02:09:47;;;;;;;13.43;5.10;;;12.00;99.90;;;;;;5063610;28;20043;-74
2022/12/31 02:12:13;;;;;;;12.70;5.10;;;12.00;99.90;;;;;;5050819;28;20040;-75
2022/12/31 02:14:43;;;;;;;13.93;5.50;;;12.00;99.90;;;;;;5048960;28;20067;-75
2022/12/31 02:17:35;;;;;;;16.52;5.60;;;12.00;99.90;;;;;;5083170;28;20055;-75
2022/12/31 02:20:10;;;;;;;11.07;4.78;;;12.00;99.90;;;;;;5066069;28;20432;-75
2022/12/31 02:22:38;;;;;;;;;;;12.00;99.90;;;;;;5063443;28;20043;-75
2022/12/31 02:25:31;;;;;;;12.10;5.45;;;12.00;99.90;;;;;;5057573;28;19921;-75
2022/12/31 02:28:24;;;;;;;10.63;4.47;;;12.00;99.90;;;;;;5063013;28;20391;-75
2022/12/31 02:30:58;;;;;;;12.05;5.35;;;12.00;99.90;;;;;;5046237;28;20465;-74
2022/12/31 02:33:37;;;;;;;12.95;5.22;;;12.00;99.90;;;;;;5062166;28;20040;-75
2022/12/31 02:36:14;;;;;;;12.18;4.75;;;12.00;99.90;;;;;;5063433;28;20047;-75
2022/12/31 02:38:44;;;;;;;12.73;5.53;;;12.00;99.90;;;;;;5062667;28;20377;-75
2022/12/31 02:41:48;;;;;;;12.02;3.97;;;12.00;99.90;;;;;;5059635;28;20056;-74
2022/12/31 02:44:24;;;;;;;11.00;4.20;;;12.00;99.90;;;;;;5061025;28;20057;-74
2022/12/31 02:47:08;;;;;;;8.48;4.25;;;12.00;99.90;;;;;;5044580;28;20051;-74
2022/12/31 02:49:42;;;;;;;12.98;3.83;;;12.00;99.90;;;;;;5044855;28;20036;-75
2022/12/31 02:52:17;;;;;;;9.73;4.00;;;12.00;99.90;;;;;;5045232;28;20060;-75
2022/12/31 02:54:48;;;;;;;;;;;12.00;99.90;;;;;;5061368;28;20087;-74
2022/12/31 02:57:18;;;;;;;10.45;3.80;;;11.90;99.90;;;;;;5070395;28;19920;-75
2022/12/31 03:02:54;;;;;;;10.13;3.50;;;11.90;99.90;;;;;;5060488;28;20045;-75
2022/12/31 03:05:27;;;;;;;9.38;3.00;;;11.90;99.90;;;;;;5060287;28;20127;-75
2022/12/31 03:07:53;;;;;;;6.97;2.80;;;11.90;99.90;;;;;;5046078;28;20451;-75
2022/12/31 03:10:18;;;;;;;7.97;2.70;;;11.80;99.90;;;;;;5045841;28;20104;-75
2022/12/31 03:12:45;;;;;;;10.48;3.10;;;11.80;99.90;;;;;;5041962;28;20044;-74
2022/12/31 03:15:32;;;;;;;10.32;2.80;;;11.80;99.90;;;;;;5042304;28;20143;-74
2022/12/31 03:18:01;;;;;;;8.43;2.50;;;11.80;99.90;;;;;;5072141;28;20119;-74
2022/12/31 03:23:28;;;;;;;8.82;2.80;;;11.70;99.90;;;;;;5059744;28;20071;-74
2022/12/31 03:25:55;;;;;;;8.20;2.35;;;11.70;99.90;;;;;;5055585;28;20450;-74
2022/12/31 03:28:23;;;;;;;9.13;2.40;;;11.70;99.90;;;;;;5057594;28;20053;-75
2022/12/31 03:30:55;;;;;;;8.00;2.05;;;11.60;99.90;;;;;;5058215;28;20075;-75
2022/12/31 03:33:22;;;;;;;6.68;2.03;;;11.60;99.90;;;;;;5059918;28;21207;-75
2022/12/31 03:35:48;;;;;;;4.72;1.95;;;11.60;99.90;;;;;;5038498;28;20036;-75
2022/12/31 03:38:15;;;;;;;8.55;2.45;;;11.50;99.90;;;;;;5053524;28;20040;-75
2022/12/31 03:40:44;;;;;;;5.28;1.77;;;11.50;99.90;;;;;;5058127;28;20084;-74
2022/12/31 03:43:10;;;;;;;4.82;1.92;;;11.40;99.90;;;;;;5052601;28;20041;-75
2022/12/31 03:45:36;;;;;;;8.75;2.13;;;11.40;99.90;;;;;;5054319;28;20059;-75
2022/12/31 03:48:04;;;;;;;7.15;2.05;;;11.40;99.90;;;;;;5055753;28;20041;-74
2022/12/31 03:50:29;;;;;;;4.72;1.48;;;11.40;99.90;;;;;;5055007;28;20151;-74
2022/12/31 03:52:55;;;;;;;4.97;1.67;;;11.40;99.90;;;;;;5041603;28;20183;-74
2022/12/31 03:55:21;;;;;;;10.18;1.90;;;11.40;99.90;;;;;;5050940;28;20044;-74
2022/12/31 03:57:47;;;;;;;5.00;1.50;;;11.30;99.90;;;;;;5059790;28;20039;-75
2022/12/31 04:00:17;;;;;;;5.50;1.60;;;11.40;99.90;;;;;;5052663;28;20075;-74
2022/12/31 04:02:43;;;;;;;7.38;2.20;;;11.30;99.90;;;;;;5051854;28;20424;-75
2022/12/31 04:05:09;;;;;;;4.30;1.90;;;11.30;99.90;;;;;;5040825;28;20028;-74
2022/12/31 04:07:35;;;;;;;5.50;1.80;;;11.30;99.90;;;;;;5038689;28;20047;-74
2022/12/31 04:10:02;;;;;;;7.70;1.90;;;11.30;99.90;;;;;;5053929;28;20036;-74
2022/12/31 04:12:28;;;;;;;7.00;1.83;;;11.30;99.90;;;;;;5057300;28;20435;-75
2022/12/31 04:14:53;;;;;;;8.32;2.00;;;11.30;99.90;;;;;;5042278;28;20033;-75
2022/12/31 04:17:19;;;;;;;8.10;2.55;;;11.30;99.90;;;;;;5053645;28;20037;-74
2022/12/31 04:19:45;;;;;;;5.88;2.55;;;11.30;99.90;;;;;;5038767;28;20071;-75
2022/12/31 04:22:10;;;;;;;4.38;1.90;;;11.20;99.90;;;;;;5044159;28;20823;-74
2022/12/31 04:24:36;;;;;;;6.65;2.17;;;11.20;99.90;;;;;;5052488;28;20480;-74
2022/12/31 04:27:01;;;;;;;8.73;2.63;;;11.20;99.90;;;;;;5054315;28;20047;-74
2022/12/31 04:29:27;;;;;;;7.32;2.85;;;11.20;99.90;;;;;;5042586;28;20044;-74
2022/12/31 04:31:53;;;;;;;5.25;2.90;;;11.20;99.90;;;;;;5061397;28;20036;-74
2022/12/31 04:34:19;;;;;;;10.32;3.13;;;11.20;99.90;;;;;;5057825;28;20555;-74
2022/12/31 04:36:44;;;;;;;11.93;3.20;;;11.20;99.90;;;;;;5058898;28;20037;-75
2022/12/31 04:39:10;;;;;;;8.82;3.78;;;11.20;99.90;;;;;;5041354;28;20493;-74
2022/12/31 04:41:35;;;;;;;8.73;3.70;;;11.10;99.90;;;;;;5041675;28;20237;-75
2022/12/31 04:44:01;;;;;;;9.00;3.67;;;11.10;99.90;;;;;;5059932;28;20097;-75
2022/12/31 04:46:29;;;;;;;10.10;3.90;;;11.10;99.90;;;;;;5058858;28;20040;-74
2022/12/31 04:48:55;;;;;;;9.38;3.90;;;11.10;99.90;;;;;;5046028;28;20040;-75
2022/12/31 04:51:21;;;;;;;9.35;4.22;;;11.10;99.90;;;;;;5060267;28;20546;-74
2022/12/31 04:53:47;;;;;;;8.63;4.07;;;11.10;99.90;;;;;;5061946;28;20048;-74
2022/12/31 04:56:13;;;;;;;9.93;3.70;;;11.00;99.90;;;;;;5062516;28;20497;-74
2022/12/31 04:58:39;;;;;;;9.35;4.03;;;11.00;99.90;;;;;;5044926;28;20787;-74
2022/12/31 05:01:05;;;;;;;12.38;4.13;;;11.00;99.90;;;;;;5043896;28;20055;-74
2022/12/31 05:03:32;;;;;;;11.23;4.10;;;11.00;99.90;;;;;;5063961;28;20041;-74
2022/12/31 05:06:26;;;;;;;12.73;4.38;;;11.00;99.90;;;;;;5067125;28;20067;-75
2022/12/31 05:08:52;;;;;;;12.32;4.18;;;11.00;99.90;;;;;;5065728;28;20040;-74
2022/12/31 05:11:18;;;;;;;12.10;4.25;;;11.00;99.90;;;;;;5047461;28;20035;-75
2022/12/31 05:13:44;;;;;;;11.55;4.20;;;11.00;99.90;;;;;;5067914;28;20162;-75
2022/12/31 05:16:09;;;;;;;11.82;4.13;;;11.10;99.90;;;;;;5051378;28;20036;-74
2022/12/31 05:18:35;;;;;;;10.52;4.68;;;11.10;99.90;;;;;;5080698;28;20037;-75
2022/12/31 05:21:01;;;;;;;9.52;3.88;;;11.10;99.90;;;;;;5065429;28;20054;-74
2022/12/31 05:23:27;;;;;;;10.93;3.97;;;11.10;99.90;;;;;;5047945;28;20036;-75
2022/12/31 05:25:53;;;;;;;12.05;4.10;;;11.00;99.90;;;;;;5067674;28;20070;-74
2022/12/31 05:28:19;;;;;;;12.40;4.15;;;11.00;99.90;;;;;;5067163;28;20048;-74
2022/12/31 05:30:48;;;;;;;9.00;3.50;;;11.00;99.90;;;;;;5065537;28;20033;-75
2022/12/31 05:33:14;;;;;;;10.18;3.70;;;11.00;99.90;;;;;;5064056;28;20047;-74
2022/12/31 05:35:39;;;;;;;10.85;4.15;;;11.10;99.90;;;;;;5066225;28;20036;-75
2022/12/31 05:38:05;;;;;;;11.18;3.88;;;11.00;99.90;;;;;;5046689;28;20784;-74
2022/12/31 05:40:31;;;;;;;10.20;3.65;;;11.10;99.90;;;;;;5064721;28;20057;-74
2022/12/31 05:42:56;;;;;;;10.15;3.42;;;11.10;99.90;;;;;;5049182;28;20484;-74
2022/12/31 05:45:22;;;;;;;8.35;3.40;;;11.10;99.90;;;;;;5063094;28;20480;-74
2022/12/31 05:47:47;;;;;;;9.45;3.10;;;11.10;99.90;;;;;;5051416;28;20115;-75
2022/12/31 05:50:17;;;;;;;8.63;3.30;;;11.10;99.90;;;;;;5064412;28;20049;-75
2022/12/31 05:52:44;;;;;;;8.15;3.10;;;11.10;99.90;;;;;;5048881;28;20377;-75
2022/12/31 05:55:11;;;;;;;7.75;2.90;;;11.10;99.90;;;;;;5047810;28;20041;-74
2022/12/31 05:57:38;;;;;;;9.38;3.10;;;11.20;99.90;;;;;;5062591;28;20049;-74
2022/12/31 06:00:05;;;;;;;9.27;3.00;;;11.20;99.90;;;;;;5046559;28;20029;-75
2022/12/31 06:02:31;;;;;;;7.25;3.38;;;11.30;99.90;;;;;;5080244;28;20415;-75
2022/12/31 06:04:57;;;;;;;9.95;3.63;;;11.20;99.90;;;;;;5060280;28;20044;-75
2022/12/31 06:07:22;;;;;;;5.00;2.90;;;11.20;99.90;;;;;;5062952;28;20048;-75
2022/12/31 06:09:48;;;;;;;5.75;2.47;;;11.20;99.90;;;;;;5060144;28;20174;-74
2022/12/31 06:12:14;;;;;;;6.22;2.58;;;11.20;99.90;;;;;;5047723;28;20040;-74
2022/12/31 06:14:39;;;;;;;5.18;2.20;;;11.10;99.90;;;;;;5045903;28;20102;-74
2022/12/31 06:17:05;;;;;;;8.38;2.25;;;11.10;99.90;;;;;;5046550;28;20028;-75
2022/12/31 06:19:31;;;;;;;5.05;1.80;;;11.00;99.90;;;;;;5074314;28;20308;-75
2022/12/31 06:21:56;;;;;;;4.28;2.00;;;10.90;99.90;;;;;;5047179;28;20594;-75
2022/12/31 06:24:22;;;;;;;2.40;1.75;;;10.80;99.90;;;;;;5060348;28;20070;-74
2022/12/31 06:26:48;;;;;;;6.35;1.90;;;10.80;99.90;;;;;;5043729;28;20048;-75
2022/12/31 06:29:14;;;;;;;6.15;2.20;;;10.70;99.90;;;;;;5062987;28;20048;-75
2022/12/31 06:31:40;;;;;;;9.27;2.40;;;10.70;99.90;;;;;;5060265;28;20043;-75
2022/12/31 06:34:05;;;;;;;5.97;2.60;;;10.70;99.90;;;;;;5062286;28;20041;-75
2022/12/31 06:36:31;;;;;;;9.18;3.10;;;10.60;99.90;;;;;;5047342;28;20028;-75
2022/12/31 06:38:56;;;;;;;11.98;3.15;;;10.60;99.90;;;;;;5062163;28;20044;-75
2022/12/31 06:41:22;;;;;;;6.78;3.53;;;10.60;99.90;;;;;;5060053;28;20161;-75
2022/12/31 06:43:48;;;;;;;10.35;4.40;;;10.50;99.90;;;;;;5044887;28;20135;-75
2022/12/31 06:46:15;;;;;;;12.18;5.00;;;10.50;99.90;;;;;;5061281;28;20033;-75
2022/12/31 06:48:43;;;;;;;12.82;6.40;;;10.60;99.90;;;;;;5061950;28;20454;-75
2022/12/31 06:51:14;;;;;;;14.85;7.50;;;10.60;99.90;;;;;;5058642;28;20043;-75
2022/12/31 06:53:40;;;;;;;13.38;7.00;;;10.70;99.90;;;;;;5055108;28;20091;-75
2022/12/31 06:56:13;;;;;;;12.48;7.30;;;10.70;99.90;;;;;;5047510;28;20110;-75
2022/12/31 06:58:39;;;;;;;10.93;6.82;;;10.70;99.90;;;;;;5042434;28;20040;-75
2022/12/31 07:01:53;;;;;;;10.77;6.65;;;10.70;99.90;;;;;;5059880;28;20036;-75
2022/12/31 07:04:21;;;;;;;10.55;5.60;;;10.80;99.90;;;;;;5053307;28;20958;-75
2022/12/31 07:06:52;;;;;;;8.82;5.25;;;10.80;99.90;;;;;;5058182;28;20403;-75
2022/12/31 07:09:25;;;;;;;12.25;5.65;;;10.70;99.90;;;;;;5048846;28;20049;-75
2022/12/31 07:12:08;;;;;;;6.82;4.45;;;10.70;99.90;;;;;;5046366;28;20514;-75
2022/12/31 07:14:58;;;;;;;7.57;4.18;;;10.80;99.90;;;;;;5043050;28;20047;-75
2022/12/31 07:18:09;;;;;;;7.85;4.70;;;10.70;99.90;;;;;;5060927;28;20041;-75
2022/12/31 07:20:34;;;;;;;8.57;4.18;;;10.70;99.90;;;;;;4983365;28;20046;-75
2022/12/31 07:23:00;;;;;;;7.03;4.07;;;10.70;99.90;;;;;;5049772;28;20056;-75
2022/12/31 07:25:26;;;;;;;7.72;4.28;;;10.70;99.90;;;;;;5058343;28;20351;-75
2022/12/31 07:28:28;;;;;;;7.88;3.72;;;10.70;99.90;;;;;;5071651;28;20036;-75
2022/12/31 07:31:12;;;;;;;9.32;4.80;;;10.70;99.90;;;;;;5059035;28;20043;-75
2022/12/31 07:34:00;;;;;;;11.57;4.95;;;10.70;99.90;;;;;;5060318;28;20455;-75
2022/12/31 07:36:38;;;;;;;11.18;5.63;;;10.60;99.90;;;;;;5061266;28;20123;-75
2022/12/31 07:39:17;;;;;;;10.15;5.75;;;10.60;99.90;;;;;;5057289;28;20045;-75
2022/12/31 07:42:02;;;;;;;10.45;6.35;;;10.60;99.90;;;;;;5056525;28;21239;-75
2022/12/31 07:44:37;;;;;;;11.93;6.07;;;10.60;99.90;;;;;;5054009;28;20068;-75
2022/12/31 07:47:04;;;;;;;10.18;6.18;;;10.60;99.90;;;;;;5056408;28;20048;-75
2022/12/31 07:49:32;;;;;;;11.80;6.45;;;10.60;99.90;;;;;;5061173;28;20121;-75
2022/12/31 07:51:58;;;;;;;12.00;6.18;;;10.60;99.90;;;;;;5040148;28;20043;-75
2022/12/31 07:54:24;;;;;;;12.68;7.15;;;10.60;99.90;;;;;;5050981;28;20044;-75
2022/12/31 07:56:50;;;;;;;11.93;6.78;;;10.60;99.90;;;;;;5061054;28;20040;-75
2022/12/31 07:59:27;;;;;;;13.48;7.43;;;10.60;99.90;;;;;;5043055;28;20033;-75
2022/12/31 08:02:13;;;;;;;13.07;7.85;;;10.60;99.90;;;;;;5055230;28;20166;-75
2022/12/31 08:05:05;;;;;;;12.57;7.15;;;10.60;99.90;;;;;;5053751;28;20414;-75
2022/12/31 08:07:30;;;;;;;11.30;6.97;;;10.60;99.90;;;;;;5057748;28;20417;-75
2022/12/31 08:10:12;;;;;;;11.73;6.47;;;10.60;99.90;;;;;;5037757;28;20048;-75
2022/12/31 08:12:39;;;;;;;11.90;6.93;;;10.60;99.90;;;;;;5053266;28;20446;-75
2022/12/31 08:15:13;;;;;;;12.93;6.63;;;10.60;99.90;;;;;;5042140;28;20070;-75
2022/12/31 08:17:39;;;;;;;13.05;6.57;;;10.60;99.90;;;;;;5037319;28;20082;-75
2022/12/31 08:20:06;;;;;;;9.57;5.85;;;10.60;99.90;;;;;;5041659;28;20374;-75
2022/12/31 08:22:37;;;;;;;10.73;5.50;;;10.60;99.90;;;;;;5046442;28;20044;-75
2022/12/31 08:25:07;;;;;;;8.80;5.15;;;10.60;99.90;;;;;;5047707;28;20040;-75
2022/12/31 08:27:42;;;;;;;8.30;4.72;;;10.60;99.90;;;;;;5074543;28;20051;-75
2022/12/31 08:30:19;;;;;;;8.48;5.00;;;10.70;99.90;;;;;;5056766;28;20051;-75
2022/12/31 08:33:09;;;;;;;8.55;4.80;;;10.70;99.90;;;;;;5041810;28;20519;-75
2022/12/31 08:35:34;;;;;;;8.38;4.50;;;10.70;99.90;;;;;;5054389;28;20028;-75
2022/12/31 08:38:43;;;;;;;7.57;4.57;;;10.70;99.90;;;;;;5054411;28;20196;-75
2022/12/31 08:41:23;;;;;;;8.13;4.50;;;10.80;99.90;;;;;;4964463;28;20463;-75
2022/12/31 08:44:14;;;;;;;7.43;4.57;;;10.90;99.90;;;;;;5062455;28;20109;-75
2022/12/31 08:47:02;;;;;;;9.32;5.20;;;10.90;99.90;;;;;;5032808;28;20059;-75
2022/12/31 08:49:30;;;;;;;9.75;6.05;;;11.00;99.90;;;;;;5059278;28;20127;-75
2022/12/31 08:51:56;;;;;;;8.98;5.85;;;11.10;99.90;;;;;;5039541;28;20033;-75
2022/12/31 08:54:22;;;;;;;10.10;5.75;;;11.20;99.90;;;;;;5040170;28;20063;-75
2022/12/31 08:57:08;;;;;;;9.40;6.28;;;11.20;99.90;;;;;;5057102;28;20475;-75
2022/12/31 08:59:48;;;;;;;10.80;6.78;;;11.30;99.90;;;;;;5057279;28;20068;-75
2022/12/31 09:02:32;;;;;;;10.80;6.93;;;11.40;99.90;;;;;;5055978;28;20044;-75
2022/12/31 09:05:22;;;;;;;10.97;6.33;;;11.50;99.90;;;;;;5060303;28;20045;-75
2022/12/31 09:08:09;;;;;;;10.77;6.65;;;11.50;99.90;;;;;;5059489;28;20302;-75
2022/12/31 09:11:01;;;;;;;12.23;7.32;;;11.60;99.90;;;;;;5076814;28;20369;-75
2022/12/31 09:14:04;;;;;;;10.00;6.05;;;11.70;99.90;;;;;;5024720;28;20052;-75
2022/12/31 09:16:37;;;;;;;9.90;5.80;;;11.70;99.90;;;;;;5057886;28;20095;-75
2022/12/31 09:19:03;;;;;;;8.40;5.75;;;11.80;99.90;;;;;;5041055;28;20056;-75
2022/12/31 09:21:31;;;;;;;8.30;5.45;;;11.90;99.90;;;;;;5052203;28;20135;-75
2022/12/31 09:23:57;;;;;;;7.70;5.15;;;12.00;99.90;;;;;;5041950;28;20062;-75
2022/12/31 09:26:49;;;;;;;7.40;4.43;;;12.10;99.90;;;;;;5055992;28;20051;-75
2022/12/31 09:29:22;;;;;;;8.48;4.10;;;12.10;99.90;;;;;;5054461;28;20041;-75
2022/12/31 09:32:03;;;;;;;5.70;3.80;;;12.20;99.90;;;;;;5042529;28;20041;-75
2022/12/31 09:34:54;;;;;;;7.10;3.40;;;12.30;99.90;;;;;;5068818;28;20040;-75
2022/12/31 09:37:33;;;;;;;7.18;3.40;;;12.40;99.90;;;;;;5057233;28;20040;-76
2022/12/31 09:40:09;;;;;;;7.80;3.80;;;12.40;99.90;;;;;;5051323;28;20081;-75
2022/12/31 09:42:52;;;;;;;5.57;3.00;;;12.50;99.90;;;;;;5051171;28;20049;-75
2022/12/31 09:45:27;;;;;;;5.90;2.83;;;12.50;99.90;;;;;;5066265;28;20052;-75
2022/12/31 09:48:06;;;;;;;3.83;2.80;;;12.60;99.90;;;;;;5040911;28;20610;-75
2022/12/31 09:50:51;;;;;;;5.43;2.80;;;12.70;99.90;;;;;;5055555;28;20048;-75
2022/12/31 09:53:39;;;;;;;2.53;2.28;;;12.70;99.90;;;;;;5072914;28;20037;-76
2022/12/31 09:56:28;;;;;;;5.80;2.90;;;12.80;99.90;;;;;;5061722;28;20033;-75
2022/12/31 09:59:17;;;;;;;5.05;3.10;;;12.80;99.90;;;;;;5057846;28;20127;-75
2022/12/31 10:02:11;;;;;;;8.60;3.00;;;12.90;99.90;;;;;;5055078;28;20585;-75
2022/12/31 10:05:07;;;;;;;4.57;2.40;;;13.00;99.90;;;;;;5062197;28;20049;-75
2022/12/31 10:07:40;;;;;;;5.63;2.05;;;13.00;99.90;;;;;;5061102;28;20052;-75
2022/12/31 10:10:09;;;;;;;4.28;2.30;;;13.10;99.90;;;;;;5063440;28;20051;-75
2022/12/31 10:12:47;;;;;;;4.40;1.90;;;13.10;99.90;;;;;;5065249;28;20048;-76
2022/12/31 10:15:37;;;;;;;6.15;2.30;;;13.20;99.90;;;;;;5064426;28;20156;-75
2022/12/31 10:18:05;;;;;;;6.40;2.10;;;13.30;99.90;;;;;;5057336;28;20037;-75
2022/12/31 10:20:49;;;;;;;4.07;1.90;;;13.30;99.90;;;;;;5058577;28;20075;-75
2022/12/31 10:23:51;;;;;;;5.47;1.58;;;13.30;99.90;;;;;;5054520;28;20045;-75
2022/12/31 10:26:29;;;;;;;5.65;2.00;;;13.30;99.90;;;;;;5056810;28;20068;-75
2022/12/31 10:29:24;;;;;;;5.10;1.88;;;13.30;99.90;;;;;;5056288;28;20435;-75
2022/12/31 10:32:16;;;;;;;8.35;2.40;;;13.40;99.90;;;;;;5057733;28;20291;-75
2022/12/31 10:35:20;;;;;;;8.68;1.92;;;13.40;99.90;;;;;;5041804;28;20603;-75
2022/12/31 10:38:28;;;;;;;9.70;3.47;;;13.40;99.90;;;;;;5029990;28;20393;-75
2022/12/31 10:41:12;;;;;;;199.63;137.57;;;13.50;99.90;;;;;;5059338;28;20052;-75
2022/12/31 10:43:48;;;;;;;9.88;2.92;;;13.50;99.90;;;;;;5059668;28;20093;-75
2022/12/31 10:46:48;;;;;;;22.45;17.15;;;13.50;99.90;;;;;;5058885;28;20119;-75
2022/12/31 10:49:41;;;;;;;91.38;75.97;;;13.50;99.90;;;;;;5063701;28;20051;-75
2022/12/31 10:52:25;;;;;;;14.95;7.80;;;13.60;99.90;;;;;;5061904;28;20048;-75
2022/12/31 10:55:25;;;;;;;22.35;15.73;;;13.60;99.90;;;;;;5057047;28;20041;-75
2022/12/31 10:58:02;;;;;;;31.40;22.80;;;13.60;99.90;;;;;;5058802;28;20048;-75
2022/12/31 11:00:59;;;;;;;43.28;30.42;;;13.60;99.90;;;;;;5044937;28;20037;-75
2022/12/31 11:03:52;;;;;;;50.42;33.25;;;13.70;99.90;;;;;;5079540;28;20036;-75
2022/12/31 11:06:48;;;;;;;10.00;2.90;;;13.70;99.90;;;;;;5045770;28;20095;-75
2022/12/31 11:09:31;;;;;;;12.50;7.78;;;13.70;99.90;;;;;;5046041;28;20032;-75
2022/12/31 11:12:03;;;;;;;13.00;3.22;;;13.70;99.90;;;;;;5040197;28;20063;-76
2022/12/31 11:14:50;;;;;;;379.85;97.60;;;13.80;99.90;;;;;;5055426;28;20033;-75
2022/12/31 11:17:36;;;;;;;16.88;3.60;;;13.80;99.90;;;;;;5056913;28;20506;-75
2022/12/31 11:20:22;;;;;;;17.27;8.35;;;13.80;99.90;;;;;;5060222;28;20071;-75
2022/12/31 11:23:09;;;;;;;9.73;2.30;;;13.80;99.90;;;;;;5063168;28;20047;-75
2022/12/31 11:26:02;;;;;;;9.52;2.90;;;13.80;99.90;;;;;;5060347;28;20480;-75
2022/12/31 11:28:43;;;;;;;42.72;26.17;;;13.80;99.90;;;;;;5041882;28;20534;-75
2022/12/31 11:31:45;;;;;;;15.65;7.97;;;13.90;99.90;;;;;;5074305;28;20043;-75
2022/12/31 11:34:45;;;;;;;36.83;32.95;;;13.90;99.90;;;;;;5056199;28;20048;-75
2022/12/31 11:37:35;;;;;;;9.70;3.00;;;13.90;99.90;;;;;;5058846;28;20123;-75
2022/12/31 11:40:38;;;;;;;12.77;4.28;;;13.90;99.90;;;;;;5058899;28;20041;-75
2022/12/31 11:43:37;;;;;;;11.88;2.67;;;13.90;99.90;;;;;;5060988;28;20083;-76
2022/12/31 11:46:36;;;;;;;15.68;6.97;;;13.90;99.90;;;;;;5056272;28;20492;-75
2022/12/31 11:49:23;;;;;;;12.48;2.80;;;13.90;99.90;;;;;;5057213;28;20055;-76
2022/12/31 11:52:13;;;;;;;10.15;4.00;;;13.90;99.90;;;;;;5037718;28;20128;-75
2022/12/31 11:55:02;;;;;;;7.88;2.85;;;13.90;99.90;;;;;;5057514;28;20055;-76
2022/12/31 11:57:36;;;;;;;7.30;3.00;;;13.90;99.90;;;;;;5058408;28;20033;-75
2022/12/31 12:00:34;;;;;;;8.82;3.00;;;14.00;99.90;;;;;;5056758;28;20116;-75
2022/12/31 12:03:03;;;;;;;8.27;2.85;;;14.00;99.90;;;;;;5034873;28;20076;-76
2022/12/31 12:05:29;;;;;;;6.53;2.63;;;13.90;99.90;;;;;;5059357;28;20028;-76
2022/12/31 12:07:55;;;;;;;7.00;2.40;;;13.90;99.90;;;;;;5055010;28;20061;-76
2022/12/31 12:10:35;;;;;;;7.10;2.28;;;13.90;99.90;;;;;;5055850;28;20067;-76
2022/12/31 12:13:17;;;;;;;7.75;2.70;;;13.80;99.90;;;;;;5042527;28;20040;-76
2022/12/31 12:15:47;;;;;;;11.07;2.90;;;13.90;99.90;;;;;;5036596;28;20075;-75
2022/12/31 12:18:25;;;;;;;10.95;3.20;;;13.80;99.90;;;;;;5039082;28;20032;-75
2022/12/31 12:20:50;;;;;;;10.25;2.95;;;13.80;99.90;;;;;;5055688;28;20072;-75
2022/12/31 12:23:23;;;;;;;10.90;2.83;;;13.80;99.90;;;;;;5056981;28;20870;-75
2022/12/31 12:25:49;;;;;;;43.25;26.42;;;13.70;99.90;;;;;;5054167;28;20337;-75
2022/12/31 12:28:22;;;;;;;13.98;3.40;;;13.70;99.90;;;;;;5053153;28;20060;-75
2022/12/31 12:31:00;;;;;;;9.52;3.17;;;13.70;99.90;;;;;;5041100;28;20693;-76
2022/12/31 12:33:28;;;;;;;13.80;6.07;;;13.70;99.90;;;;;;5058561;28;20052;-76
2022/12/31 12:36:09;;;;;;;14.10;4.20;;;13.70;99.90;;;;;;5041358;28;21437;-75
2022/12/31 12:38:35;;;;;;;10.23;3.55;;;13.70;99.90;;;;;;5054808;28;20083;-75
2022/12/31 12:41:04;;;;;;;14.20;4.05;;;13.70;99.90;;;;;;5038438;28;20056;-75
2022/12/31 12:43:35;;;;;;;77.95;37.72;;;13.70;99.90;;;;;;5040415;28;20401;-76
2022/12/31 12:46:05;;;;;;;17.10;6.13;;;13.70;99.90;;;;;;5039506;28;20032;-75
2022/12/31 12:48:44;;;;;;;17.08;3.70;;;13.70;99.90;;;;;;5044883;28;20124;-75
2022/12/31 12:51:24;;;;;;;15.02;5.82;;;13.70;99.90;;;;;;5054713;28;20092;-75
2022/12/31 12:53:56;;;;;;;18.30;11.18;;;13.70;99.90;;;;;;5058029;28;20404;-75
2022/12/31 12:56:47;;;;;;;18.55;5.95;;;13.80;99.90;;;;;;5043632;28;20036;-75
2022/12/31 12:59:50;;;;;;;20.75;9.25;;;13.80;99.90;;;;;;5061531;28;20391;-75
2022/12/31 13:02:28;;;;;;;273.35;244.10;;;13.80;99.90;;;;;;5059222;28;20446;-75
2022/12/31 13:05:23;;;;;;;18.05;12.05;;;13.80;99.90;;;;;;5044460;28;20059;-76
2022/12/31 13:08:45;;;;;;;13.50;4.75;;;13.80;99.90;;;;;;5071930;28;20052;-75
2022/12/31 13:11:38;;;;;;;12.38;7.00;;;13.80;99.90;;;;;;4949251;28;20046;-75
2022/12/31 13:14:46;;;;;;;13.63;4.15;;;13.80;99.90;;;;;;4959569;28;20426;-75
2022/12/31 13:17:33;;;;;;;11.80;3.78;;;13.80;99.90;;;;;;4942741;28;20065;-75
2022/12/31 13:20:05;;;;;;;347.95;268.95;;;13.80;99.90;;;;;;4948122;28;20045;-75
2022/12/31 13:22:36;;;;;;;22.42;13.52;;;13.70;99.90;;;;;;4963463;28;20706;-75
2022/12/31 13:25:20;;;;;;;15.70;4.25;;;13.70;99.90;;;;;;4948917;28;20053;-75
2022/12/31 13:27:50;;;;;;;11.60;3.53;;;13.60;99.90;;;;;;4965120;28;20509;-76